Time;durP1;ratioP1;P1;durP2;ratioP2;P2;SDS_P1;SDS_P2;PMS_P1;PMS_P2;Temp;Humidity;BMP_temperature;BMP_pressure;BME280_temperature;BME280_humidity;BME280_pressure;Samples;Min_cycle;Max_cycle;Signal;HPM_P1;HPM_P2
2023/08/19 00:01:29;;;;;;;1999.90;999.90;;;20.00;99.90;;;;;;5090602;28;20044;-71
2023/08/19 00:03:55;;;;;;;1999.90;999.90;;;20.00;99.90;;;;;;5086770;28;20522;-71
2023/08/19 00:06:36;;;;;;;1999.90;999.90;;;20.00;99.90;;;;;;5085803;28;20044;-71
2023/08/19 00:09:04;;;;;;;1999.90;999.90;;;20.00;99.90;;;;;;5086606;28;20075;-71
2023/08/19 00:11:34;;;;;;;1999.90;999.90;;;20.00;99.90;;;;;;5087202;28;20038;-70
2023/08/19 00:13:59;;;;;;;1999.90;999.90;;;20.00;99.90;;;;;;5087239;28;20039;-71
2023/08/19 00:16:25;;;;;;;1999.90;999.90;;;20.00;99.90;;;;;;5084444;28;20073;-70
2023/08/19 00:18:51;;;;;;;1999.90;999.90;;;20.00;99.90;;;;;;5104588;28;20526;-71
2023/08/19 00:21:17;;;;;;;1999.90;999.90;;;20.00;99.90;;;;;;5087156;28;20723;-71
2023/08/19 00:23:42;;;;;;;1999.90;999.90;;;20.00;99.90;;;;;;5104493;28;20063;-71
2023/08/19 00:26:11;;;;;;;1999.90;999.90;;;20.00;99.90;;;;;;5080207;28;20090;-71
2023/08/19 00:28:37;;;;;;;1999.90;999.90;;;20.00;99.90;;;;;;5084861;28;20055;-70
2023/08/19 00:31:03;;;;;;;1999.90;999.90;;;20.00;99.90;;;;;;5086104;28;20085;-70
2023/08/19 00:33:28;;;;;;;1999.90;999.90;;;20.00;99.90;;;;;;5076658;28;20045;-71
2023/08/19 00:35:54;;;;;;;1999.90;999.90;;;20.00;99.90;;;;;;5086679;28;20468;-71
2023/08/19 00:38:20;;;;;;;1999.90;999.90;;;20.00;99.90;;;;;;5095470;28;20119;-71
2023/08/19 00:40:46;;;;;;;1999.90;999.90;;;20.00;99.90;;;;;;5086090;28;20460;-71
2023/08/19 00:43:12;;;;;;;1999.90;999.90;;;20.00;99.90;;;;;;5070465;28;20052;-71
2023/08/19 00:45:42;;;;;;;1999.90;999.90;;;20.00;99.90;;;;;;5082340;28;20050;-71
2023/08/19 00:48:08;;;;;;;1999.90;999.90;;;19.90;99.90;;;;;;5086977;28;20134;-71
2023/08/19 00:50:34;;;;;;;1999.90;999.90;;;20.00;99.90;;;;;;5078850;28;20127;-71
2023/08/19 00:52:59;;;;;;;1999.90;999.90;;;20.00;99.90;;;;;;5087972;28;20040;-71
2023/08/19 00:55:25;;;;;;;1999.90;999.90;;;20.00;99.90;;;;;;5088006;28;20134;-71
2023/08/19 00:57:53;;;;;;;1999.90;999.90;;;19.90;99.90;;;;;;5062960;28;20036;-71
2023/08/19 01:00:18;;;;;;;1999.90;999.90;;;19.90;99.90;;;;;;5090541;28;20460;-71
2023/08/19 01:02:44;;;;;;;1999.90;999.90;;;19.90;99.90;;;;;;5091710;28;20126;-71
2023/08/19 01:05:11;;;;;;;1999.90;999.90;;;19.90;99.90;;;;;;5080006;28;20135;-71
2023/08/19 01:07:48;;;;;;;1999.90;999.90;;;19.90;99.90;;;;;;5086579;28;20056;-71
2023/08/19 01:11:06;;;;;;;1999.90;999.90;;;19.90;99.90;;;;;;5095540;28;20114;-71
2023/08/19 01:13:40;;;;;;;1999.90;999.90;;;19.80;99.90;;;;;;5024965;28;20045;-71
2023/08/19 01:16:20;;;;;;;1999.90;999.90;;;19.80;99.90;;;;;;5053635;28;20087;-72
2023/08/19 01:18:47;;;;;;;1999.90;999.90;;;19.70;99.90;;;;;;5086960;28;20036;-72
2023/08/19 01:21:13;;;;;;;1999.90;999.90;;;19.80;99.90;;;;;;5090908;28;20044;-72
2023/08/19 01:23:45;;;;;;;1999.90;999.90;;;19.70;99.90;;;;;;5092288;28;20047;-72
2023/08/19 01:26:11;;;;;;;1999.90;999.90;;;19.70;99.90;;;;;;5093337;28;20056;-71
2023/08/19 01:28:37;;;;;;;1999.90;999.90;;;19.70;99.90;;;;;;5096395;28;20037;-71
2023/08/19 01:31:02;;;;;;;1999.90;999.90;;;19.60;99.90;;;;;;5092644;28;20120;-72
2023/08/19 01:33:28;;;;;;;1999.90;999.90;;;19.60;99.90;;;;;;5092653;28;20040;-71
2023/08/19 01:36:26;;;;;;;1999.90;999.90;;;19.60;99.90;;;;;;5097557;28;20048;-71
2023/08/19 01:38:54;;;;;;;1999.90;999.90;;;19.60;99.90;;;;;;5083910;28;20036;-71
2023/08/19 01:41:22;;;;;;;1999.90;999.90;;;19.60;99.90;;;;;;5110159;28;20474;-71
2023/08/19 01:43:49;;;;;;;1999.90;999.90;;;19.60;99.90;;;;;;5076303;28;20081;-71
2023/08/19 01:46:15;;;;;;;1999.90;999.90;;;19.60;99.90;;;;;;5089682;28;20046;-71
2023/08/19 01:48:41;;;;;;;1999.90;999.90;;;19.60;99.90;;;;;;5091963;28;20484;-71
2023/08/19 01:51:06;;;;;;;1999.90;999.90;;;19.60;99.90;;;;;;5092182;28;20089;-71
2023/08/19 01:53:32;;;;;;;1999.90;999.90;;;19.50;99.90;;;;;;5077203;28;20047;-71
2023/08/19 01:55:58;;;;;;;1999.90;999.90;;;19.50;99.90;;;;;;5107551;28;20064;-71
2023/08/19 01:58:23;;;;;;;1999.90;999.90;;;19.50;99.90;;;;;;5092649;28;20040;-71
2023/08/19 02:00:49;;;;;;;1999.90;999.90;;;19.50;99.90;;;;;;5105750;28;20042;-71
2023/08/19 02:03:14;;;;;;;1999.90;999.90;;;19.50;99.90;;;;;;5085060;28;20155;-71
2023/08/19 02:05:40;;;;;;;1999.90;999.90;;;19.50;99.90;;;;;;5092195;28;20047;-71
2023/08/19 02:08:06;;;;;;;1999.90;999.90;;;19.50;99.90;;;;;;5111344;28;20426;-71
2023/08/19 02:10:32;;;;;;;1999.90;999.90;;;19.50;99.90;;;;;;5087580;28;20048;-71
2023/08/19 02:12:58;;;;;;;1999.90;999.90;;;19.50;99.90;;;;;;5092724;28;20032;-71
2023/08/19 02:15:23;;;;;;;1999.90;999.90;;;19.40;99.90;;;;;;5092792;28;20376;-72
2023/08/19 02:17:49;;;;;;;1999.90;999.90;;;19.40;99.90;;;;;;5107526;28;20040;-71
2023/08/19 02:20:15;;;;;;;1999.90;999.90;;;19.40;99.90;;;;;;5076118;28;20047;-71
2023/08/19 02:22:41;;;;;;;1999.90;999.90;;;19.40;99.90;;;;;;5085428;28;20502;-71
2023/08/19 02:25:07;;;;;;;1999.90;999.90;;;19.40;99.90;;;;;;5100459;28;20031;-71
2023/08/19 02:27:33;;;;;;;1999.90;999.90;;;19.40;99.90;;;;;;5075307;28;20028;-71
2023/08/19 02:29:59;;;;;;;1999.90;999.90;;;19.30;99.90;;;;;;5089753;28;20402;-72
2023/08/19 02:32:25;;;;;;;1999.90;999.90;;;19.30;99.90;;;;;;5087057;28;20434;-71
2023/08/19 02:34:51;;;;;;;1999.90;999.90;;;19.40;99.90;;;;;;5087241;28;20056;-71
2023/08/19 02:37:16;;;;;;;1999.90;999.90;;;19.40;99.90;;;;;;5084258;28;20097;-71
2023/08/19 02:39:42;;;;;;;1999.90;999.90;;;19.40;99.90;;;;;;5087138;28;20500;-71
2023/08/19 02:42:08;;;;;;;1999.90;999.90;;;19.40;99.90;;;;;;5072825;28;20043;-71
2023/08/19 02:44:35;;;;;;;1999.90;999.90;;;19.40;99.90;;;;;;5089704;28;20121;-71
2023/08/19 02:47:00;;;;;;;1999.90;999.90;;;19.40;99.90;;;;;;5085018;28;20051;-71
2023/08/19 02:49:26;;;;;;;1999.90;999.90;;;19.40;99.90;;;;;;5082964;28;20496;-71
2023/08/19 02:51:52;;;;;;;1999.90;999.90;;;19.40;99.90;;;;;;5087504;28;20121;-71
2023/08/19 02:54:17;;;;;;;1999.90;999.90;;;19.40;99.90;;;;;;5093442;28;20040;-71
2023/08/19 02:56:43;;;;;;;1999.90;999.90;;;19.40;99.90;;;;;;5105368;28;20044;-71
2023/08/19 02:59:09;;;;;;;1999.90;999.90;;;19.40;99.90;;;;;;5087094;28;20564;-71
2023/08/19 03:01:35;;;;;;;1999.90;999.90;;;19.40;99.90;;;;;;5088039;28;20115;-71
2023/08/19 03:04:00;;;;;;;1999.90;999.90;;;19.40;99.90;;;;;;5089793;28;20951;-71
2023/08/19 03:06:26;;;;;;;1999.90;999.90;;;19.40;99.90;;;;;;5084756;28;20056;-72
2023/08/19 03:08:52;;;;;;;1999.90;999.90;;;19.40;99.90;;;;;;5087291;28;20131;-71
2023/08/19 03:11:18;;;;;;;1999.90;999.90;;;19.40;99.90;;;;;;5090057;28;20051;-71
2023/08/19 03:13:44;;;;;;;1999.90;999.90;;;19.40;99.90;;;;;;5079893;28;20055;-71
2023/08/19 03:16:09;;;;;;;1999.90;999.90;;;19.40;99.90;;;;;;5089064;28;20594;-71
2023/08/19 03:18:35;;;;;;;1999.90;999.90;;;19.40;99.90;;;;;;5089039;28;20098;-71
2023/08/19 03:21:01;;;;;;;1999.90;999.90;;;19.40;99.90;;;;;;5089898;28;20038;-71
2023/08/19 03:23:27;;;;;;;1999.90;999.90;;;19.40;99.90;;;;;;5089069;28;20040;-71
2023/08/19 03:25:54;;;;;;;1999.90;999.90;;;19.40;99.90;;;;;;5087981;28;20529;-71
2023/08/19 03:28:20;;;;;;;1999.90;999.90;;;19.40;99.90;;;;;;5088624;28;20373;-71
2023/08/19 03:30:46;;;;;;;1999.90;999.90;;;19.50;99.90;;;;;;5068371;28;20031;-71
2023/08/19 03:33:11;;;;;;;1999.90;999.90;;;19.50;99.90;;;;;;5088172;28;20442;-71
2023/08/19 03:35:37;;;;;;;1999.90;999.90;;;19.50;99.90;;;;;;5087425;28;20051;-71
2023/08/19 03:38:03;;;;;;;1999.90;999.90;;;19.50;99.90;;;;;;5092859;28;20143;-71
2023/08/19 03:40:29;;;;;;;1999.90;999.90;;;19.50;99.90;;;;;;5088340;28;20047;-71
2023/08/19 03:42:54;;;;;;;1999.90;999.90;;;19.50;99.90;;;;;;5093597;28;20036;-71
2023/08/19 03:45:20;;;;;;;1999.90;999.90;;;19.50;99.90;;;;;;5070846;28;20044;-71
2023/08/19 03:47:46;;;;;;;1999.90;999.90;;;19.50;99.90;;;;;;5084901;28;20040;-72
2023/08/19 03:50:12;;;;;;;1999.90;999.90;;;19.50;99.90;;;;;;5089337;28;20069;-71
2023/08/19 03:52:37;;;;;;;1999.90;999.90;;;19.60;99.90;;;;;;5091550;28;20089;-71
2023/08/19 03:55:03;;;;;;;1999.90;999.90;;;19.60;99.90;;;;;;5087723;28;20036;-71
2023/08/19 03:57:28;;;;;;;1999.90;999.90;;;19.60;99.90;;;;;;5089237;28;20039;-71
2023/08/19 03:59:54;;;;;;;1999.90;999.90;;;19.60;99.90;;;;;;5101596;28;20047;-71
2023/08/19 04:02:20;;;;;;;1999.90;999.90;;;19.60;99.90;;;;;;5085557;28;20389;-71
2023/08/19 04:05:03;;;;;;;1999.90;999.90;;;19.60;99.90;;;;;;5104989;28;20482;-71
2023/08/19 04:07:29;;;;;;;1999.90;999.90;;;19.60;99.90;;;;;;5087274;28;20446;-71
2023/08/19 04:09:55;;;;;;;1999.90;999.90;;;19.60;99.90;;;;;;5069671;28;20040;-71
2023/08/19 04:12:22;;;;;;;1999.90;999.90;;;19.60;99.90;;;;;;5087498;28;20055;-71
2023/08/19 04:14:47;;;;;;;1999.90;999.90;;;19.60;99.90;;;;;;5088671;28;20040;-71
2023/08/19 04:17:13;;;;;;;1999.90;999.90;;;19.60;99.90;;;;;;5078452;28;20800;-71
2023/08/19 04:19:39;;;;;;;1999.90;999.90;;;19.60;99.90;;;;;;5089815;28;20089;-70
2023/08/19 04:22:04;;;;;;;1999.90;999.90;;;19.70;99.90;;;;;;5090233;28;20497;-71
2023/08/19 04:24:30;;;;;;;1999.90;999.90;;;19.70;99.90;;;;;;5086620;28;20044;-72
2023/08/19 04:26:55;;;;;;;1999.90;999.90;;;19.60;99.90;;;;;;5068755;28;20040;-71
2023/08/19 04:29:21;;;;;;;1999.90;999.90;;;19.70;99.90;;;;;;5069663;28;20887;-71
2023/08/19 04:31:47;;;;;;;1999.90;999.90;;;19.70;99.90;;;;;;5069511;28;20035;-71
2023/08/19 04:34:12;;;;;;;1999.90;999.90;;;19.60;99.90;;;;;;5086784;28;20069;-71
2023/08/19 04:36:38;;;;;;;1999.90;999.90;;;19.60;99.90;;;;;;5081344;28;20440;-71
2023/08/19 04:39:07;;;;;;;1999.90;999.90;;;19.70;99.90;;;;;;5086854;28;20042;-71
2023/08/19 04:41:33;;;;;;;1999.90;999.90;;;19.70;99.90;;;;;;5086595;28;20047;-71
2023/08/19 04:43:59;;;;;;;1999.90;999.90;;;19.70;99.90;;;;;;5086780;28;20212;-71
2023/08/19 04:46:24;;;;;;;1999.90;999.90;;;19.70;99.90;;;;;;5090502;28;20118;-71
2023/08/19 04:48:50;;;;;;;1999.90;999.90;;;19.70;99.90;;;;;;5086559;28;20142;-71
2023/08/19 04:51:15;;;;;;;1999.90;999.90;;;19.80;99.90;;;;;;5086908;28;20051;-71
2023/08/19 04:53:41;;;;;;;1999.90;999.90;;;19.80;99.90;;;;;;5062085;28;20518;-71
2023/08/19 04:56:07;;;;;;;1999.90;999.90;;;19.90;99.90;;;;;;5097315;28;20053;-71
2023/08/19 04:58:32;;;;;;;1999.90;999.90;;;19.90;99.90;;;;;;5071980;28;20030;-71
2023/08/19 05:00:58;;;;;;;1999.90;999.90;;;20.00;99.90;;;;;;5084868;28;20032;-71
2023/08/19 05:03:23;;;;;;;1999.90;999.90;;;20.10;99.90;;;;;;5073120;28;20039;-71
2023/08/19 05:05:49;;;;;;;1999.90;999.90;;;20.10;99.90;;;;;;5078524;28;20051;-71
2023/08/19 05:08:15;;;;;;;1999.90;999.90;;;20.20;99.90;;;;;;5088120;28;20048;-71
2023/08/19 05:10:41;;;;;;;1999.90;999.90;;;20.20;99.90;;;;;;5087970;28;20046;-71
2023/08/19 05:13:07;;;;;;;1999.90;999.90;;;20.30;99.90;;;;;;5065461;28;20043;-71
2023/08/19 05:15:32;;;;;;;1999.90;999.90;;;20.30;99.90;;;;;;5083333;28;20082;-71
2023/08/19 05:17:58;;;;;;;1999.90;999.90;;;20.30;99.90;;;;;;5088699;28;20046;-71
2023/08/19 05:20:23;;;;;;;1999.90;999.90;;;20.40;99.90;;;;;;5089737;28;20049;-71
2023/08/19 05:22:49;;;;;;;1999.90;999.90;;;20.40;99.90;;;;;;5095330;28;20765;-71
2023/08/19 05:25:14;;;;;;;1999.90;999.90;;;20.40;99.90;;;;;;5069461;28;20127;-71
2023/08/19 05:27:40;;;;;;;1999.90;999.90;;;20.40;99.90;;;;;;5103619;28;20048;-71
2023/08/19 05:30:07;;;;;;;1999.90;999.90;;;20.50;99.90;;;;;;5082648;28;20036;-71
2023/08/19 05:32:33;;;;;;;1999.90;999.90;;;20.50;99.90;;;;;;5089706;28;20727;-71
2023/08/19 05:34:59;;;;;;;1999.90;999.90;;;20.50;99.90;;;;;;5086531;28;20044;-71
2023/08/19 05:37:25;;;;;;;1999.90;999.90;;;20.50;99.90;;;;;;5084510;28;20862;-71
2023/08/19 05:39:50;;;;;;;1999.90;999.90;;;20.60;99.90;;;;;;5084530;28;20139;-71
2023/08/19 05:42:16;;;;;;;1999.90;999.90;;;20.60;99.90;;;;;;5102715;28;20078;-71
2023/08/19 05:44:42;;;;;;;1999.90;999.90;;;20.70;99.90;;;;;;5097799;28;20046;-72
2023/08/19 05:47:09;;;;;;;1999.90;999.90;;;20.70;99.90;;;;;;5083235;28;20048;-71
2023/08/19 05:49:35;;;;;;;1999.90;999.90;;;20.80;99.90;;;;;;5068953;28;20061;-71
2023/08/19 05:52:00;;;;;;;1999.90;999.90;;;20.90;99.90;;;;;;5085327;28;20035;-72
2023/08/19 05:54:26;;;;;;;1999.90;999.90;;;20.90;99.90;;;;;;5068392;28;20173;-71
2023/08/19 05:56:51;;;;;;;1999.90;999.90;;;21.10;99.90;;;;;;5068861;28;20119;-71
2023/08/19 05:59:17;;;;;;;1999.90;999.90;;;21.10;99.90;;;;;;5082290;28;20082;-71
2023/08/19 06:01:43;;;;;;;1999.90;999.90;;;21.20;99.90;;;;;;5093371;28;20055;-71
2023/08/19 06:04:08;;;;;;;1999.90;999.90;;;21.20;99.90;;;;;;5077752;28;20519;-71
2023/08/19 06:06:34;;;;;;;1999.90;999.90;;;21.20;99.90;;;;;;5087223;28;20055;-72
2023/08/19 06:09:00;;;;;;;1999.90;999.90;;;21.30;99.90;;;;;;5089904;28;20040;-71
2023/08/19 06:11:25;;;;;;;1999.90;999.90;;;21.30;99.90;;;;;;5105282;28;20058;-71
2023/08/19 06:13:52;;;;;;;1999.90;999.90;;;21.30;99.90;;;;;;5071171;28;20064;-71
2023/08/19 06:16:18;;;;;;;1999.90;999.90;;;21.40;99.90;;;;;;5094345;28;20051;-71
2023/08/19 06:18:43;;;;;;;1999.90;999.90;;;21.40;99.90;;;;;;5088347;28;20510;-71
2023/08/19 06:21:09;;;;;;;1999.90;999.90;;;21.50;99.90;;;;;;5102668;28;20097;-71
2023/08/19 06:23:35;;;;;;;1999.90;999.90;;;21.50;99.90;;;;;;5092516;28;20044;-71
2023/08/19 06:26:00;;;;;;;1999.90;999.90;;;21.60;99.90;;;;;;5067701;28;20048;-72
2023/08/19 06:28:26;;;;;;;1999.90;999.90;;;21.70;99.90;;;;;;5069351;28;20055;-71
2023/08/19 06:30:52;;;;;;;1999.90;999.90;;;21.80;99.90;;;;;;5091725;28;20121;-71
2023/08/19 06:33:18;;;;;;;1999.90;999.90;;;21.80;99.90;;;;;;5098029;28;20548;-71
2023/08/19 06:35:49;;;;;;;1999.90;999.90;;;21.80;99.90;;;;;;5087253;28;20151;-71
2023/08/19 06:38:18;;;;;;;1999.90;999.90;;;21.80;99.90;;;;;;5095368;28;20075;-71
2023/08/19 06:41:07;;;;;;;1999.90;999.90;;;21.80;99.90;;;;;;5064935;28;20205;-71
2023/08/19 06:43:34;;;;;;;1999.90;999.90;;;21.80;99.90;;;;;;5088026;28;20051;-72
2023/08/19 06:46:01;;;;;;;1999.90;999.90;;;21.80;99.90;;;;;;5086587;28;20759;-72
2023/08/19 06:48:28;;;;;;;1999.90;999.90;;;21.80;99.90;;;;;;5097384;28;20049;-71
2023/08/19 06:50:54;;;;;;;1999.90;999.90;;;21.70;99.90;;;;;;5088168;28;20035;-71
2023/08/19 06:53:21;;;;;;;1999.90;999.90;;;21.70;99.90;;;;;;5105026;28;20516;-71
2023/08/19 06:56:26;;;;;;;1999.90;999.90;;;21.70;99.90;;;;;;5088512;28;20126;-71
2023/08/19 06:58:57;;;;;;;1999.90;999.90;;;21.80;99.90;;;;;;5086686;28;20139;-71
2023/08/19 07:01:26;;;;;;;1999.90;999.90;;;21.80;99.90;;;;;;5084073;28;20044;-71
2023/08/19 07:03:52;;;;;;;1999.90;999.90;;;21.80;99.90;;;;;;5094776;28;20063;-71
2023/08/19 07:06:20;;;;;;;1999.90;999.90;;;21.80;99.90;;;;;;5093932;28;20104;-71
2023/08/19 07:08:48;;;;;;;1999.90;999.90;;;21.90;99.90;;;;;;5088461;28;20089;-71
2023/08/19 07:11:15;;;;;;;1999.90;999.90;;;22.00;99.90;;;;;;5087029;28;20055;-71
2023/08/19 07:13:42;;;;;;;1999.90;999.90;;;22.10;99.90;;;;;;5087719;28;20052;-71
2023/08/19 07:16:10;;;;;;;1999.90;999.90;;;22.10;99.90;;;;;;5086873;28;20491;-71
2023/08/19 07:18:42;;;;;;;1999.90;999.90;;;22.20;99.90;;;;;;5087032;28;20395;-71
2023/08/19 07:21:10;;;;;;;1999.90;999.90;;;22.30;99.90;;;;;;5086384;28;20063;-72
2023/08/19 07:23:39;;;;;;;1999.90;999.90;;;22.40;99.90;;;;;;5066744;28;20043;-71
2023/08/19 07:26:04;;;;;;;1999.90;999.90;;;22.40;99.90;;;;;;5087028;28;20456;-72
2023/08/19 07:28:31;;;;;;;1999.90;999.90;;;22.50;99.90;;;;;;5090150;28;20210;-71
2023/08/19 07:30:58;;;;;;;1999.90;999.90;;;22.60;99.90;;;;;;5084711;28;20109;-71
2023/08/19 07:33:23;;;;;;;1999.90;999.90;;;22.60;99.90;;;;;;5095368;28;20522;-71
2023/08/19 07:35:49;;;;;;;1999.90;999.90;;;22.70;99.90;;;;;;5105388;28;20087;-72
2023/08/19 07:38:15;;;;;;;1999.90;999.90;;;22.80;99.90;;;;;;5102468;27;20036;-71
2023/08/19 07:40:41;;;;;;;164.73;156.90;;;22.90;99.90;;;;;;5096077;28;20086;-71
2023/08/19 07:43:06;;;;;;;164.07;156.65;;;22.90;99.90;;;;;;5102266;28;20040;-72
2023/08/19 07:45:32;;;;;;;193.95;185.10;;;22.90;99.90;;;;;;5067018;28;20048;-71
2023/08/19 07:47:57;;;;;;;203.52;194.32;;;23.00;99.90;;;;;;5101309;28;20556;-72
2023/08/19 07:50:24;;;;;;;198.73;189.95;;;23.00;99.90;;;;;;5077234;28;20059;-71
2023/08/19 07:52:49;;;;;;;168.98;161.13;;;23.00;99.90;;;;;;5104869;28;20688;-72
2023/08/19 07:55:15;;;;;;;260.33;248.57;;;23.00;99.90;;;;;;5105632;28;20046;-72
2023/08/19 07:57:40;;;;;;;320.40;305.67;;;23.10;99.90;;;;;;5081431;28;20048;-72
2023/08/19 08:00:07;;;;;;;321.23;306.45;;;23.10;99.90;;;;;;5080639;28;20036;-72
2023/08/19 08:02:32;;;;;;;325.77;310.55;;;23.20;99.90;;;;;;5087445;28;20040;-71
2023/08/19 08:04:58;;;;;;;314.52;299.65;;;23.20;99.90;;;;;;5073674;28;20069;-72
2023/08/19 08:07:24;;;;;;;257.42;245.43;;;23.30;99.90;;;;;;5086715;28;20051;-71
2023/08/19 08:09:50;;;;;;;396.73;377.60;;;23.30;99.90;;;;;;5087680;28;20043;-71
2023/08/19 08:12:15;;;;;;;375.92;357.88;;;23.40;99.90;;;;;;5104811;28;20051;-71
2023/08/19 08:14:41;;;;;;;367.02;349.15;;;23.50;99.90;;;;;;5100911;28;20138;-72
2023/08/19 08:17:06;;;;;;;318.92;303.83;;;23.50;99.90;;;;;;5083316;28;20048;-72
2023/08/19 08:19:32;;;;;;;344.73;328.33;;;23.60;99.90;;;;;;5105089;28;20495;-72
2023/08/19 08:21:58;;;;;;;176.48;168.57;;;23.60;99.90;;;;;;5070688;28;20051;-71
2023/08/19 08:24:23;;;;;;;313.33;298.52;;;23.60;99.90;;;;;;5087333;28;20039;-72
2023/08/19 08:26:49;;;;;;;259.30;247.48;;;23.60;99.90;;;;;;5104091;28;20138;-71
2023/08/19 08:29:16;;;;;;;322.83;307.58;;;23.70;99.90;;;;;;5084099;28;20040;-71
2023/08/19 08:31:42;;;;;;;223.00;213.05;;;23.80;99.90;;;;;;5096411;28;20083;-71
2023/08/19 08:34:08;;;;;;;199.98;190.73;;;23.90;99.90;;;;;;5070632;28;20075;-72
2023/08/19 08:36:33;;;;;;;296.45;281.90;;;24.10;99.90;;;;;;5080723;28;20047;-71
2023/08/19 08:38:59;;;;;;;153.43;146.57;;;24.20;99.90;;;;;;5104211;28;20493;-71
2023/08/19 08:41:26;;;;;;;240.20;228.95;;;24.50;99.90;;;;;;5065094;28;20436;-72
2023/08/19 08:43:54;;;;;;;199.90;191.23;;;24.60;99.90;;;;;;5070146;28;20044;-72
2023/08/19 08:46:24;;;;;;;138.70;131.95;;;24.80;99.90;;;;;;5087153;28;20048;-72
2023/08/19 08:48:51;;;;;;;250.98;239.18;;;25.00;99.90;;;;;;5081336;28;20041;-71
2023/08/19 08:51:19;;;;;;;155.57;148.50;;;25.30;99.90;;;;;;5082253;28;20040;-72
2023/08/19 08:53:46;;;;;;;230.07;219.43;;;25.80;99.90;;;;;;5086647;28;20393;-72
2023/08/19 08:56:13;;;;;;;158.45;151.18;;;26.10;99.90;;;;;;5085412;28;20133;-72
2023/08/19 08:58:39;;;;;;;194.25;185.10;;;26.50;99.90;;;;;;5068586;28;20074;-72
2023/08/19 09:01:06;;;;;;;174.98;166.80;;;26.70;99.90;;;;;;5097415;28;20406;-72
2023/08/19 09:03:33;;;;;;;180.27;171.98;;;26.80;99.90;;;;;;5085389;28;20043;-71
2023/08/19 09:06:07;;;;;;;232.48;221.95;;;26.90;99.90;;;;;;5075930;28;20119;-72
2023/08/19 09:08:58;;;;;;;210.75;201.18;;;27.50;99.90;;;;;;5076863;28;20052;-72
2023/08/19 09:11:27;;;;;;;251.68;240.27;;;27.80;99.90;;;;;;5075774;28;20047;-72
2023/08/19 09:14:07;;;;;;;338.52;322.75;;;27.60;99.90;;;;;;5088080;28;20054;-73
2023/08/19 09:16:33;;;;;;;337.20;321.27;;;27.20;99.90;;;;;;5086658;28;20123;-72
2023/08/19 09:18:58;;;;;;;285.08;272.08;;;26.90;99.90;;;;;;5070524;28;20119;-72
2023/08/19 09:21:24;;;;;;;245.10;233.80;;;26.70;99.90;;;;;;5086718;28;20040;-72
2023/08/19 09:23:50;;;;;;;264.33;252.18;;;26.50;99.90;;;;;;5083085;28;20063;-72
2023/08/19 09:26:17;;;;;;;282.70;269.27;;;26.50;99.90;;;;;;5086628;28;20125;-72
2023/08/19 09:28:43;;;;;;;271.98;258.90;;;26.50;99.90;;;;;;5087602;28;20039;-72
2023/08/19 09:31:26;;;;;;;233.23;222.18;;;26.60;99.90;;;;;;5096447;28;20088;-72
2023/08/19 09:33:52;;;;;;;186.68;178.00;;;26.90;99.90;;;;;;5068880;28;20074;-72
2023/08/19 09:36:28;;;;;;;218.65;208.70;;;27.00;99.90;;;;;;5087001;28;20032;-72
2023/08/19 09:38:57;;;;;;;362.42;343.35;;;27.60;99.90;;;;;;5082655;28;20039;-73
2023/08/19 09:41:32;;;;;;;185.90;177.18;;;28.30;99.90;;;;;;5070446;28;20055;-72
2023/08/19 09:43:58;;;;;;;198.48;189.20;;;28.60;99.90;;;;;;5066656;28;20587;-72
2023/08/19 09:46:33;;;;;;;197.15;187.80;;;28.60;99.90;;;;;;5088150;28;20040;-72
2023/08/19 09:49:00;;;;;;;195.88;186.88;;;28.50;99.90;;;;;;5090672;28;20138;-72
2023/08/19 09:51:27;;;;;;;192.82;184.10;;;28.40;99.90;;;;;;5091749;28;20407;-72
2023/08/19 09:53:53;;;;;;;328.50;312.30;;;28.30;99.90;;;;;;5090793;28;20633;-72
2023/08/19 09:56:25;;;;;;;332.30;315.63;;;28.10;99.90;;;;;;5090289;28;20040;-72
2023/08/19 09:58:53;;;;;;;435.42;411.60;;;27.80;99.90;;;;;;5075753;28;20040;-71
2023/08/19 10:01:22;;;;;;;336.23;319.35;;;27.70;99.90;;;;;;5081067;28;20040;-72
2023/08/19 10:03:49;;;;;;;347.95;329.85;;;27.50;99.90;;;;;;5073034;28;20056;-71
2023/08/19 10:06:26;;;;;;;256.10;243.13;;;27.30;99.90;;;;;;5086409;28;20535;-71
2023/08/19 10:08:59;;;;;;;206.65;196.57;;;27.20;99.90;;;;;;5090228;28;20143;-71
2023/08/19 10:11:27;;;;;;;188.93;179.75;;;27.10;99.90;;;;;;5090049;28;20082;-71
2023/08/19 10:13:55;;;;;;;209.80;199.70;;;26.90;99.90;;;;;;5088044;28;20476;-72
2023/08/19 10:16:23;;;;;;;259.13;246.05;;;26.70;99.90;;;;;;5095287;28;20041;-71
2023/08/19 10:18:51;;;;;;;196.48;186.68;;;26.50;99.90;;;;;;5085164;28;20084;-71
2023/08/19 10:21:18;;;;;;;225.35;214.35;;;26.20;99.90;;;;;;5084210;28;20047;-71
2023/08/19 10:23:45;;;;;;;301.58;286.90;;;26.00;99.90;;;;;;5065713;28;20051;-71
2023/08/19 10:26:12;;;;;;;441.20;417.73;;;25.80;99.90;;;;;;5089426;28;20087;-70
2023/08/19 10:28:37;;;;;;;590.70;555.08;;;25.60;99.90;;;;;;5089694;28;20052;-70
2023/08/19 10:31:05;;;;;;;696.40;652.75;;;25.50;99.90;;;;;;5086696;28;20157;-71
2023/08/19 10:33:47;;;;;;;596.85;562.60;;;25.50;99.90;;;;;;5087511;28;20048;-71
2023/08/19 10:36:20;;;;;;;794.25;741.85;;;25.50;99.90;;;;;;5089078;28;20048;-70
2023/08/19 10:38:56;;;;;;;696.00;653.28;;;25.80;99.90;;;;;;5089774;28;20032;-71
2023/08/19 10:41:36;;;;;;;786.53;736.00;;;25.90;99.90;;;;;;5088603;28;21088;-70
2023/08/19 10:44:12;;;;;;;729.13;683.70;;;26.10;99.90;;;;;;5075466;28;20051;-71
2023/08/19 10:46:40;;;;;;;709.03;665.25;;;26.40;99.90;;;;;;5088096;28;20759;-72
2023/08/19 10:49:13;;;;;;;602.33;567.88;;;26.60;99.90;;;;;;5085238;28;20496;-71
2023/08/19 10:52:00;;;;;;;617.30;581.00;;;26.60;99.90;;;;;;5087593;28;20419;-71
2023/08/19 10:54:34;;;;;;;633.47;596.35;;;26.60;99.90;;;;;;5080103;28;20123;-72
2023/08/19 10:57:14;;;;;;;604.00;569.25;;;26.50;99.90;;;;;;5066965;28;20076;-71
2023/08/19 10:59:52;;;;;;;538.75;509.20;;;26.40;99.90;;;;;;5081716;28;20378;-71
2023/08/19 11:02:18;;;;;;;596.78;562.95;;;26.30;99.90;;;;;;5091297;28;20148;-71
2023/08/19 11:04:47;;;;;;;620.72;584.75;;;26.20;99.90;;;;;;5089014;28;20044;-71
2023/08/19 11:07:14;;;;;;;679.67;639.13;;;26.10;99.90;;;;;;5087099;28;20131;-71
2023/08/19 11:09:44;;;;;;;779.10;728.55;;;26.10;99.90;;;;;;5081365;28;20087;-71
2023/08/19 11:12:11;;;;;;;837.78;781.25;;;26.20;99.90;;;;;;5085199;28;20043;-72
2023/08/19 11:14:38;;;;;;;788.45;736.45;;;26.40;99.90;;;;;;5090083;28;20039;-71
2023/08/19 11:17:04;;;;;;;661.75;621.65;;;26.90;99.90;;;;;;5083906;28;20079;-71
2023/08/19 11:19:31;;;;;;;753.60;705.75;;;27.60;99.90;;;;;;5082040;28;20652;-72
2023/08/19 11:21:57;;;;;;;304.42;290.27;;;28.20;99.90;;;;;;5086063;28;20381;-71
2023/08/19 11:24:30;;;;;;;381.42;362.83;;;28.60;99.90;;;;;;5087646;28;20073;-71
2023/08/19 11:26:56;;;;;;;291.80;277.10;;;28.70;99.90;;;;;;5085298;28;20044;-71
2023/08/19 11:29:21;;;;;;;292.90;279.02;;;28.60;99.90;;;;;;5090845;28;20039;-71
2023/08/19 11:31:47;;;;;;;418.27;396.75;;;28.50;99.90;;;;;;5071776;28;20048;-71
2023/08/19 11:34:13;;;;;;;291.77;277.80;;;28.60;99.90;;;;;;5090067;28;20039;-71
2023/08/19 11:36:45;;;;;;;199.57;189.98;;;28.70;99.90;;;;;;5094927;28;20032;-71
2023/08/19 11:39:11;;;;;;;282.83;269.20;;;28.70;99.90;;;;;;5088856;28;20130;-71
2023/08/19 11:41:37;;;;;;;269.75;257.02;;;28.60;99.90;;;;;;5079698;28;20032;-71
2023/08/19 11:44:03;;;;;;;268.65;255.48;;;28.50;99.90;;;;;;5093245;28;20065;-71
2023/08/19 11:46:30;;;;;;;307.10;292.30;;;28.30;99.90;;;;;;5089976;28;20101;-71
2023/08/19 11:48:57;;;;;;;241.30;229.65;;;28.20;99.90;;;;;;5088992;28;20051;-71
2023/08/19 11:51:27;;;;;;;269.80;256.25;;;28.00;99.90;;;;;;5086889;28;20055;-71
2023/08/19 11:54:00;;;;;;;315.33;299.40;;;27.80;99.90;;;;;;5088962;28;20047;-71
2023/08/19 11:56:25;;;;;;;404.55;383.77;;;27.70;99.90;;;;;;5103220;28;20507;-71
2023/08/19 11:58:52;;;;;;;402.48;381.08;;;27.50;99.90;;;;;;5094429;28;20068;-71
2023/08/19 12:01:19;;;;;;;405.42;384.63;;;27.30;99.90;;;;;;5073884;28;20040;-71
2023/08/19 12:03:47;;;;;;;544.03;513.70;;;27.20;99.90;;;;;;5070708;28;20036;-71
2023/08/19 12:06:14;;;;;;;547.10;515.72;;;27.10;99.90;;;;;;5066525;28;20047;-71